Time;durP1;ratioP1;P1;durP2;ratioP2;P2;SDS_P1;SDS_P2;PMS_P1;PMS_P2;Temp;Humidity;BMP_temperature;BMP_pressure;BME280_temperature;BME280_humidity;BME280_pressure;Samples;Min_cycle;Max_cycle;Signal;HPM_P1;HPM_P2
2022/07/28 00:00:22;;;;;;;3.15;1.70;;;19.00;57.10;;;;;;5011317;28;20115;-76
2022/07/28 00:02:47;;;;;;;5.50;1.60;;;19.00;57.30;;;;;;5009828;28;20078;-76
2022/07/28 00:05:13;;;;;;;2.88;1.70;;;18.80;57.70;;;;;;5010985;28;20026;-77
2022/07/28 00:07:39;;;;;;;2.75;1.80;;;18.80;57.80;;;;;;5010824;28;20022;-77
2022/07/28 00:10:05;;;;;;;1.95;1.55;;;18.80;57.90;;;;;;5010906;28;20073;-76
2022/07/28 00:12:31;;;;;;;1.50;1.40;;;18.80;58.10;;;;;;5009539;28;20030;-77
2022/07/28 00:14:57;;;;;;;2.10;1.30;;;18.80;58.20;;;;;;5010975;28;20049;-77
2022/07/28 00:17:23;;;;;;;2.72;1.50;;;18.80;58.40;;;;;;5010823;28;20018;-77
2022/07/28 00:19:49;;;;;;;2.75;1.70;;;18.90;58.30;;;;;;5009944;28;20078;-77
2022/07/28 00:22:15;;;;;;;2.20;1.52;;;18.90;58.40;;;;;;5010756;28;20022;-76
2022/07/28 00:24:41;;;;;;;1.90;1.48;;;18.90;58.30;;;;;;5010727;28;20032;-76
2022/07/28 00:27:06;;;;;;;2.88;1.60;;;19.00;58.40;;;;;;5010653;28;20029;-76
2022/07/28 00:29:32;;;;;;;3.25;1.55;;;18.90;58.70;;;;;;5010755;28;20025;-76
2022/07/28 00:31:58;;;;;;;1.65;1.50;;;18.90;58.80;;;;;;5010737;28;20063;-75
2022/07/28 00:34:24;;;;;;;2.50;1.70;;;18.90;59.10;;;;;;5010569;28;20478;-76
2022/07/28 00:36:50;;;;;;;2.15;1.42;;;18.90;59.10;;;;;;5010787;28;20028;-76
2022/07/28 00:39:15;;;;;;;5.88;2.08;;;18.90;59.10;;;;;;5010829;28;20064;-76
2022/07/28 00:41:41;;;;;;;3.83;2.10;;;18.80;59.10;;;;;;5010676;28;20370;-76
2022/07/28 00:44:07;;;;;;;4.15;1.55;;;18.70;59.30;;;;;;5011195;28;20347;-74
2022/07/28 00:46:33;;;;;;;3.60;2.03;;;18.70;59.60;;;;;;5009381;28;20032;-76
2022/07/28 00:48:59;;;;;;;2.10;1.52;;;18.60;60.60;;;;;;5010504;28;20022;-75
2022/07/28 00:51:26;;;;;;;2.55;1.75;;;18.60;60.20;;;;;;5010399;28;20087;-76
2022/07/28 00:53:52;;;;;;;3.33;1.90;;;18.50;61.20;;;;;;5010327;28;20038;-76
2022/07/28 00:56:19;;;;;;;4.60;1.75;;;18.50;60.40;;;;;;5010262;27;20026;-75
2022/07/28 00:58:46;;;;;;;5.57;1.67;;;18.50;60.50;;;;;;5010522;28;20038;-76
2022/07/28 01:01:18;;;;;;;2.90;1.80;;;18.50;60.40;;;;;;5010641;28;20474;-75
2022/07/28 01:03:56;;;;;;;4.60;1.88;;;18.50;60.30;;;;;;5011662;28;20034;-75
2022/07/28 01:06:47;;;;;;;4.03;1.50;;;18.40;60.10;;;;;;5011090;28;20046;-76
2022/07/28 01:09:52;;;;;;;2.50;1.50;;;18.40;60.20;;;;;;5018458;28;20113;-75
2022/07/28 01:12:27;;;;;;;3.22;1.75;;;18.40;60.50;;;;;;5012820;28;20110;-76
2022/07/28 01:15:09;;;;;;;3.67;1.98;;;18.40;60.70;;;;;;5010894;28;20512;-76
2022/07/28 01:17:37;;;;;;;1.40;1.30;;;18.30;61.20;;;;;;5010326;28;20030;-76
2022/07/28 01:20:15;;;;;;;3.72;1.60;;;18.30;61.30;;;;;;5010260;28;20026;-76
2022/07/28 01:22:55;;;;;;;2.03;1.60;;;18.30;61.10;;;;;;5010249;28;20034;-76
2022/07/28 01:25:28;;;;;;;4.38;1.98;;;18.30;61.30;;;;;;5008837;28;20022;-75
2022/07/28 01:28:00;;;;;;;3.15;1.55;;;18.30;61.30;;;;;;5010050;28;20026;-74
2022/07/28 01:30:40;;;;;;;2.72;1.92;;;18.30;61.40;;;;;;5010288;28;20059;-75
2022/07/28 01:33:25;;;;;;;3.95;2.00;;;18.20;61.40;;;;;;5011991;28;20030;-76
2022/07/28 01:35:55;;;;;;;5.40;2.05;;;18.10;61.50;;;;;;5013338;28;20029;-75
2022/07/28 01:38:23;;;;;;;4.88;1.77;;;18.00;61.70;;;;;;5013266;28;20501;-75
2022/07/28 01:40:51;;;;;;;2.58;1.90;;;18.00;61.80;;;;;;5013176;28;20068;-74
2022/07/28 01:43:23;;;;;;;1.48;1.38;;;17.90;61.90;;;;;;5013140;28;20048;-74
2022/07/28 01:45:49;;;;;;;5.07;2.10;;;17.90;62.00;;;;;;5013174;28;20084;-74
2022/07/28 01:48:17;;;;;;;2.42;1.70;;;17.90;62.30;;;;;;5013117;28;20022;-74
2022/07/28 01:50:47;;;;;;;2.90;1.77;;;17.70;62.90;;;;;;5012992;28;20501;-75
2022/07/28 01:53:15;;;;;;;3.70;1.75;;;17.70;63.40;;;;;;5012988;28;20052;-74
2022/07/28 01:55:43;;;;;;;2.15;1.58;;;17.70;63.40;;;;;;5012956;28;20026;-75
2022/07/28 01:58:10;;;;;;;3.10;1.23;;;17.60;64.30;;;;;;5012838;28;20049;-74
2022/07/28 02:00:38;;;;;;;3.90;1.63;;;17.60;63.60;;;;;;5012931;28;20026;-75
2022/07/28 02:03:06;;;;;;;2.00;1.67;;;17.60;63.60;;;;;;5012806;28;20026;-75
2022/07/28 02:05:35;;;;;;;3.45;1.92;;;17.50;63.60;;;;;;5012789;28;20022;-75
2022/07/28 02:08:02;;;;;;;2.95;1.70;;;17.50;64.00;;;;;;5012712;28;20546;-75
2022/07/28 02:10:28;;;;;;;3.75;1.85;;;17.40;64.20;;;;;;5012780;28;20041;-74
2022/07/28 02:12:55;;;;;;;2.65;1.83;;;17.40;64.40;;;;;;5012624;28;20106;-75
2022/07/28 02:15:22;;;;;;;4.63;1.98;;;17.40;64.30;;;;;;5012694;28;20498;-75
2022/07/28 02:17:50;;;;;;;2.40;1.98;;;17.30;64.50;;;;;;5012679;28;20025;-75
2022/07/28 02:20:17;;;;;;;3.28;2.10;;;17.30;64.50;;;;;;5012650;28;20033;-75
2022/07/28 02:22:44;;;;;;;2.95;1.70;;;17.30;64.50;;;;;;5012411;28;20466;-75
2022/07/28 02:25:11;;;;;;;4.45;2.15;;;17.30;64.60;;;;;;5012448;28;20040;-75
2022/07/28 02:27:57;;;;;;;2.92;1.65;;;17.30;64.80;;;;;;5011246;28;20068;-75
2022/07/28 02:30:35;;;;;;;2.22;1.63;;;17.30;64.90;;;;;;5012455;28;20083;-76
2022/07/28 02:33:07;;;;;;;2.25;1.70;;;17.20;64.70;;;;;;5012252;28;20050;-75
2022/07/28 02:35:45;;;;;;;2.40;1.85;;;17.20;64.90;;;;;;5012294;28;20101;-75
2022/07/28 02:38:29;;;;;;;3.85;1.80;;;17.30;64.70;;;;;;5012288;28;20086;-76
2022/07/28 02:40:59;;;;;;;2.42;1.80;;;17.20;64.50;;;;;;5012312;28;20033;-75
2022/07/28 02:43:28;;;;;;;3.33;1.90;;;17.30;64.50;;;;;;5011429;28;20378;-75
2022/07/28 02:45:57;;;;;;;1.77;1.67;;;17.20;64.40;;;;;;5010898;28;20026;-74
2022/07/28 02:48:28;;;;;;;3.33;1.70;;;17.10;64.90;;;;;;5012143;28;20026;-78
2022/07/28 02:50:56;;;;;;;2.65;1.90;;;17.00;64.80;;;;;;5012135;28;20022;-75
2022/07/28 02:53:23;;;;;;;2.08;1.70;;;16.90;65.20;;;;;;5012007;28;20129;-76
2022/07/28 02:55:50;;;;;;;2.65;1.85;;;16.80;65.20;;;;;;5012038;28;20105;-76
2022/07/28 02:58:19;;;;;;;2.17;1.70;;;16.80;65.40;;;;;;5011883;28;20054;-76
2022/07/28 03:00:47;;;;;;;2.10;1.90;;;16.80;65.40;;;;;;5011912;28;20022;-76
2022/07/28 03:03:14;;;;;;;3.17;1.77;;;16.70;65.70;;;;;;5011981;28;20037;-76
2022/07/28 03:05:40;;;;;;;2.22;2.00;;;16.70;65.80;;;;;;5011833;28;20022;-76
2022/07/28 03:08:07;;;;;;;4.43;2.10;;;16.70;65.80;;;;;;5011666;28;20098;-76
2022/07/28 03:10:32;;;;;;;2.60;1.73;;;16.70;65.80;;;;;;5011495;28;20026;-76
2022/07/28 03:12:59;;;;;;;3.85;2.17;;;16.60;65.90;;;;;;5011949;28;20037;-76
2022/07/28 03:15:24;;;;;;;2.22;1.90;;;16.60;66.10;;;;;;5011880;28;20486;-75
2022/07/28 03:17:50;;;;;;;2.00;1.88;;;16.60;66.10;;;;;;5011698;28;20029;-75
2022/07/28 03:20:16;;;;;;;2.88;2.17;;;16.50;66.20;;;;;;5011838;28;20026;-76
2022/07/28 03:22:42;;;;;;;2.85;2.05;;;16.50;66.20;;;;;;5011823;28;20032;-77
2022/07/28 03:25:26;;;;;;;4.95;2.20;;;16.50;66.30;;;;;;5011593;28;20467;-76
2022/07/28 03:27:53;;;;;;;2.40;2.08;;;16.50;66.40;;;;;;5011665;28;20095;-75
2022/07/28 03:30:25;;;;;;;4.93;2.45;;;16.30;66.80;;;;;;5011482;28;20382;-75
2022/07/28 03:32:55;;;;;;;2.20;1.85;;;16.30;66.70;;;;;;5011500;28;20030;-75
2022/07/28 03:35:21;;;;;;;2.05;1.95;;;16.40;66.70;;;;;;5011396;28;20092;-75
2022/07/28 03:38:01;;;;;;;2.75;2.17;;;16.40;66.50;;;;;;5011364;28;20391;-75
2022/07/28 03:40:30;;;;;;;5.28;2.35;;;16.40;66.40;;;;;;5011175;28;20026;-75
2022/07/28 03:42:58;;;;;;;2.65;2.17;;;16.40;66.10;;;;;;5011191;28;20022;-75
2022/07/28 03:45:25;;;;;;;4.10;2.35;;;16.50;66.10;;;;;;5010798;28;20026;-75
2022/07/28 03:47:53;;;;;;;3.72;2.40;;;16.40;66.10;;;;;;5011199;28;20033;-75
2022/07/28 03:50:28;;;;;;;2.97;2.20;;;16.40;66.20;;;;;;5011242;28;20355;-75
2022/07/28 03:52:55;;;;;;;3.45;2.50;;;16.30;66.60;;;;;;5009731;28;20094;-75
2022/07/28 03:55:21;;;;;;;2.97;2.53;;;16.30;66.60;;;;;;5011021;28;20501;-75
2022/07/28 03:57:47;;;;;;;3.30;2.30;;;16.30;66.50;;;;;;5011006;28;20072;-75
2022/07/28 04:00:15;;;;;;;5.03;2.70;;;16.30;66.60;;;;;;5011127;28;20494;-75
2022/07/28 04:02:44;;;;;;;3.38;2.30;;;16.30;66.70;;;;;;5011164;28;20406;-76
2022/07/28 04:05:15;;;;;;;2.83;2.08;;;16.30;66.70;;;;;;5009827;28;20052;-75
2022/07/28 04:07:41;;;;;;;4.75;2.35;;;16.40;66.40;;;;;;5010959;28;20175;-75
2022/07/28 04:10:09;;;;;;;3.13;2.20;;;16.40;66.30;;;;;;5010979;28;20037;-76
2022/07/28 04:12:46;;;;;;;4.55;2.70;;;16.40;66.30;;;;;;5010807;28;20054;-76
2022/07/28 04:15:15;;;;;;;3.53;2.50;;;16.40;66.40;;;;;;5010916;28;20123;-75
2022/07/28 04:17:41;;;;;;;3.85;2.80;;;16.40;66.10;;;;;;5009543;28;20479;-75
2022/07/28 04:20:08;;;;;;;3.15;2.83;;;16.40;66.00;;;;;;5010608;28;20064;-74
2022/07/28 04:22:34;;;;;;;5.50;2.70;;;16.40;66.00;;;;;;5010610;28;20037;-76
2022/07/28 04:25:03;;;;;;;5.53;3.17;;;16.40;65.90;;;;;;5010514;28;20030;-75
2022/07/28 04:27:29;;;;;;;4.57;3.17;;;16.30;66.10;;;;;;5010562;28;20026;-75
2022/07/28 04:29:54;;;;;;;4.63;2.40;;;16.40;66.00;;;;;;5010273;28;20147;-75
2022/07/28 04:32:20;;;;;;;5.07;2.97;;;16.40;65.90;;;;;;5010289;28;20018;-75
2022/07/28 04:34:45;;;;;;;3.65;2.63;;;16.30;66.00;;;;;;5010400;28;20030;-74
2022/07/28 04:37:13;;;;;;;3.67;2.80;;;16.40;66.20;;;;;;5010441;28;20106;-75
2022/07/28 04:39:39;;;;;;;3.85;2.95;;;16.40;66.00;;;;;;5010178;28;20098;-75
2022/07/28 04:42:05;;;;;;;4.63;2.75;;;16.50;66.10;;;;;;5010376;28;20106;-75
2022/07/28 04:44:31;;;;;;;5.03;2.45;;;16.60;65.70;;;;;;5015485;28;20026;-76
2022/07/28 04:46:56;;;;;;;3.15;2.25;;;16.60;65.40;;;;;;5030663;28;20117;-76
2022/07/28 04:49:22;;;;;;;3.42;2.47;;;16.80;65.10;;;;;;5022215;28;20026;-75
2022/07/28 04:51:51;;;;;;;2.40;2.20;;;16.80;65.00;;;;;;5010576;28;20029;-76
2022/07/28 04:54:17;;;;;;;4.90;2.50;;;16.80;64.90;;;;;;5010195;28;20041;-75
2022/07/28 04:56:43;;;;;;;5.88;2.40;;;16.80;64.80;;;;;;5009954;28;20042;-76
2022/07/28 04:59:09;;;;;;;4.07;2.17;;;16.90;64.80;;;;;;5010379;28;20109;-76
2022/07/28 05:01:37;;;;;;;4.05;2.80;;;16.90;64.50;;;;;;5010188;28;20034;-75
2022/07/28 05:04:06;;;;;;;3.10;2.58;;;17.00;64.10;;;;;;5010406;28;20023;-73
2022/07/28 05:06:34;;;;;;;3.88;2.25;;;17.00;64.10;;;;;;5012088;28;20105;-75
2022/07/28 05:08:59;;;;;;;5.25;2.75;;;17.00;64.10;;;;;;5013315;28;20110;-74
2022/07/28 05:11:25;;;;;;;6.70;2.67;;;17.10;64.10;;;;;;5013236;28;20494;-75
2022/07/28 05:13:51;;;;;;;5.10;2.90;;;17.10;63.90;;;;;;5013103;28;20390;-74
2022/07/28 05:16:17;;;;;;;3.58;2.30;;;17.20;63.80;;;;;;5013200;28;20041;-74
2022/07/28 05:18:43;;;;;;;6.95;2.55;;;17.30;63.60;;;;;;5012903;28;20026;-74
2022/07/28 05:21:09;;;;;;;2.50;2.08;;;17.40;63.20;;;;;;5013108;28;20033;-74
2022/07/28 05:23:34;;;;;;;2.63;2.20;;;17.60;62.80;;;;;;5013134;28;20022;-74
2022/07/28 05:26:00;;;;;;;5.95;2.72;;;17.70;62.30;;;;;;5013216;28;20033;-74
2022/07/28 05:28:25;;;;;;;6.78;2.60;;;17.80;61.90;;;;;;5013428;28;20105;-74
2022/07/28 05:30:51;;;;;;;6.47;2.70;;;17.90;61.70;;;;;;5013150;28;20112;-75
2022/07/28 05:33:17;;;;;;;7.28;2.92;;;17.90;60.90;;;;;;5011778;28;20034;-77
2022/07/28 05:35:44;;;;;;;7.10;3.10;;;17.90;60.10;;;;;;5012885;28;20030;-75
2022/07/28 05:38:09;;;;;;;7.80;3.30;;;17.90;60.70;;;;;;5012857;28;20041;-75
2022/07/28 05:40:35;;;;;;;7.15;3.30;;;17.80;60.90;;;;;;5012994;28;20045;-76
2022/07/28 05:43:01;;;;;;;7.63;3.00;;;17.70;60.80;;;;;;5012956;28;20104;-75
2022/07/28 05:45:26;;;;;;;6.03;3.33;;;17.40;61.70;;;;;;5012917;28;20018;-74
2022/07/28 05:47:52;;;;;;;7.95;2.75;;;17.40;62.20;;;;;;5012884;28;20026;-74
2022/07/28 05:50:23;;;;;;;3.42;2.47;;;17.40;61.70;;;;;;5012843;28;20026;-75
2022/07/28 05:52:50;;;;;;;6.03;2.50;;;17.40;61.80;;;;;;5012573;28;20106;-75
2022/07/28 05:55:16;;;;;;;5.20;2.70;;;17.70;61.50;;;;;;5012700;28;20067;-74
2022/07/28 05:57:42;;;;;;;6.47;2.80;;;17.80;60.90;;;;;;5012424;28;20058;-75
2022/07/28 06:00:13;;;;;;;10.40;3.00;;;17.90;60.90;;;;;;5012602;28;20030;-75
2022/07/28 06:02:41;;;;;;;10.77;2.97;;;17.90;60.40;;;;;;5012662;28;20022;-74
2022/07/28 06:05:07;;;;;;;8.52;3.30;;;17.70;61.80;;;;;;5012621;28;20037;-74
2022/07/28 06:07:33;;;;;;;4.07;2.42;;;17.70;61.70;;;;;;5011328;28;20022;-74
2022/07/28 06:09:58;;;;;;;6.05;3.33;;;17.90;61.60;;;;;;5012475;28;20026;-74
2022/07/28 06:12:24;;;;;;;7.32;3.05;;;17.90;61.30;;;;;;5012478;28;20378;-73
2022/07/28 06:14:49;;;;;;;4.78;2.80;;;17.90;61.40;;;;;;5012484;28;20033;-74
2022/07/28 06:17:15;;;;;;;8.13;3.25;;;18.00;61.50;;;;;;5011394;28;20026;-74
2022/07/28 06:19:42;;;;;;;4.50;2.83;;;18.10;61.30;;;;;;5011933;28;20061;-74
2022/07/28 06:22:08;;;;;;;6.03;3.20;;;18.10;61.40;;;;;;5012285;28;20049;-74
2022/07/28 06:24:33;;;;;;;4.22;2.50;;;18.20;61.30;;;;;;5012176;28;20421;-75
2022/07/28 06:27:01;;;;;;;5.63;2.80;;;18.30;61.30;;;;;;5012400;28;20127;-74
2022/07/28 06:29:27;;;;;;;4.20;3.17;;;18.50;60.60;;;;;;5012309;28;20049;-74
2022/07/28 06:31:53;;;;;;;4.38;2.63;;;18.70;60.00;;;;;;5012267;28;20083;-74
2022/07/28 06:34:18;;;;;;;6.30;3.08;;;18.80;59.50;;;;;;5012279;28;20046;-74
2022/07/28 06:36:44;;;;;;;7.97;3.40;;;19.10;59.00;;;;;;5012106;28;20033;-73
2022/07/28 06:39:09;;;;;;;6.45;2.80;;;19.30;58.00;;;;;;5012268;28;20083;-72
2022/07/28 06:41:40;;;;;;;7.47;3.10;;;19.40;57.60;;;;;;5012040;28;20466;-73
2022/07/28 06:44:06;;;;;;;5.18;2.47;;;19.50;57.00;;;;;;5012021;28;20036;-72
2022/07/28 06:46:31;;;;;;;9.27;2.97;;;19.80;56.30;;;;;;5012042;28;20472;-72
2022/07/28 06:48:57;;;;;;;8.15;2.85;;;19.70;56.60;;;;;;5011815;28;20026;-72
2022/07/28 06:51:22;;;;;;;4.43;2.90;;;20.00;56.00;;;;;;5011893;28;20373;-72
2022/07/28 06:53:48;;;;;;;16.83;4.32;;;20.20;55.20;;;;;;5011772;28;20579;-71
2022/07/28 06:56:13;;;;;;;12.82;3.70;;;20.40;54.60;;;;;;5011756;28;20060;-72
2022/07/28 06:58:39;;;;;;;6.78;3.17;;;20.60;54.00;;;;;;5011571;28;20038;-74
2022/07/28 07:01:06;;;;;;;8.43;3.55;;;20.80;53.00;;;;;;5011588;28;20101;-73
2022/07/28 07:03:32;;;;;;;13.50;4.28;;;20.90;53.00;;;;;;5011337;28;20026;-73
2022/07/28 07:05:57;;;;;;;8.65;3.97;;;21.00;52.70;;;;;;5011390;28;20053;-73
2022/07/28 07:08:23;;;;;;;5.57;3.22;;;20.90;52.90;;;;;;5011474;28;20025;-72
2022/07/28 07:10:48;;;;;;;8.85;3.13;;;20.90;52.90;;;;;;5011290;28;20037;-73
2022/07/28 07:13:14;;;;;;;12.98;4.18;;;20.90;53.00;;;;;;5011556;28;20030;-72
2022/07/28 07:15:40;;;;;;;8.27;3.22;;;21.10;52.40;;;;;;5011659;28;20033;-72
2022/07/28 07:18:05;;;;;;;3.78;3.03;;;21.20;52.10;;;;;;5011429;28;20513;-72
2022/07/28 07:20:31;;;;;;;4.90;3.30;;;21.40;51.90;;;;;;5011418;28;20112;-73
2022/07/28 07:22:57;;;;;;;8.45;3.35;;;21.50;51.40;;;;;;5011115;28;20032;-72
2022/07/28 07:25:22;;;;;;;5.22;3.22;;;21.80;50.70;;;;;;5011298;28;20099;-71
2022/07/28 07:27:48;;;;;;;5.60;3.60;;;22.00;49.90;;;;;;5011364;28;20026;-74
2022/07/28 07:30:14;;;;;;;7.00;3.10;;;22.20;48.90;;;;;;5010968;28;20036;-72
2022/07/28 07:32:41;;;;;;;5.63;2.95;;;22.20;48.90;;;;;;5011192;28;20042;-72
2022/07/28 07:35:07;;;;;;;5.72;3.97;;;22.30;49.00;;;;;;5010229;28;20030;-72
2022/07/28 07:37:32;;;;;;;4.93;3.40;;;22.10;49.50;;;;;;5009649;28;20471;-71
2022/07/28 07:39:59;;;;;;;3.67;3.08;;;21.90;50.10;;;;;;5009811;28;20125;-71
2022/07/28 07:42:25;;;;;;;4.72;2.67;;;21.90;50.30;;;;;;5009919;28;20026;-72
2022/07/28 07:44:51;;;;;;;9.52;3.97;;;21.90;50.10;;;;;;5009912;28;20022;-72
2022/07/28 07:47:17;;;;;;;7.18;3.70;;;22.10;49.80;;;;;;5009866;28;20033;-72
2022/07/28 07:49:42;;;;;;;4.30;2.75;;;22.10;49.80;;;;;;5009590;28;20026;-72
2022/07/28 07:52:08;;;;;;;6.10;3.25;;;22.10;49.60;;;;;;5009888;28;20068;-72
2022/07/28 07:54:34;;;;;;;6.30;3.72;;;22.30;49.50;;;;;;5009772;28;20030;-72
2022/07/28 07:56:59;;;;;;;7.40;3.85;;;22.20;49.70;;;;;;5009935;28;20069;-72
2022/07/28 07:59:25;;;;;;;10.27;4.00;;;22.20;50.00;;;;;;5009609;28;20025;-72
2022/07/28 08:01:53;;;;;;;7.50;3.63;;;22.30;49.80;;;;;;5009658;28;20470;-72
2022/07/28 08:04:20;;;;;;;7.50;3.95;;;22.30;49.40;;;;;;5009475;28;20038;-72
2022/07/28 08:06:46;;;;;;;6.90;3.38;;;22.20;50.30;;;;;;5009345;28;20471;-72
2022/07/28 08:09:13;;;;;;;8.25;3.42;;;22.10;50.60;;;;;;5009507;28;20025;-72
2022/07/28 08:11:39;;;;;;;6.60;3.47;;;22.00;51.30;;;;;;5009267;28;20022;-72
2022/07/28 08:14:05;;;;;;;10.25;3.80;;;22.10;50.50;;;;;;5009227;28;20340;-72
2022/07/28 08:16:30;;;;;;;8.52;4.20;;;22.10;50.50;;;;;;5009016;28;20229;-73
2022/07/28 08:18:58;;;;;;;9.05;3.83;;;22.00;51.20;;;;;;5010483;28;20113;-72
2022/07/28 08:21:25;;;;;;;9.27;4.25;;;22.20;50.70;;;;;;5009244;28;20497;-72
2022/07/28 08:23:51;;;;;;;7.47;3.13;;;22.40;49.90;;;;;;5009153;28;20030;-72
2022/07/28 08:26:17;;;;;;;7.78;3.88;;;22.40;49.70;;;;;;5009285;28;20030;-72
2022/07/28 08:28:43;;;;;;;7.45;3.97;;;22.40;50.00;;;;;;5009082;28;20387;-72
2022/07/28 08:31:08;;;;;;;6.05;3.80;;;22.50;49.80;;;;;;5009126;28;20135;-72
2022/07/28 08:33:34;;;;;;;7.25;3.25;;;22.50;49.80;;;;;;5009062;28;20462;-72
2022/07/28 08:36:00;;;;;;;6.40;3.53;;;22.30;50.10;;;;;;5010426;28;20026;-72
2022/07/28 08:38:25;;;;;;;8.45;3.33;;;22.40;50.10;;;;;;5009262;28;20034;-72
2022/07/28 08:40:55;;;;;;;9.57;3.30;;;22.50;49.90;;;;;;5008174;28;20367;-72
2022/07/28 08:43:34;;;;;;;5.63;2.90;;;22.70;49.50;;;;;;5009086;28;20196;-72
2022/07/28 08:46:02;;;;;;;12.52;3.38;;;22.90;48.80;;;;;;5008674;28;20155;-72
2022/07/28 08:48:33;;;;;;;8.50;3.67;;;23.10;48.80;;;;;;5008640;28;20025;-72
2022/07/28 08:51:01;;;;;;;12.65;4.47;;;23.00;49.20;;;;;;5009235;28;20033;-72
2022/07/28 08:53:29;;;;;;;7.32;3.40;;;22.90;49.20;;;;;;5008942;28;20426;-72
2022/07/28 08:56:01;;;;;;;12.38;3.53;;;23.00;49.20;;;;;;5009043;28;20071;-72
2022/07/28 08:58:29;;;;;;;4.65;3.17;;;23.10;48.80;;;;;;5008868;28;20128;-72
2022/07/28 09:00:56;;;;;;;3.30;2.50;;;23.40;48.30;;;;;;5009031;28;20113;-72
2022/07/28 09:03:22;;;;;;;11.27;4.00;;;23.60;47.60;;;;;;5008960;28;20052;-72
2022/07/28 09:05:49;;;;;;;10.43;3.40;;;23.80;47.70;;;;;;5008894;28;20022;-72
2022/07/28 09:08:16;;;;;;;6.47;3.15;;;23.90;46.90;;;;;;5008729;28;20022;-72
2022/07/28 09:10:42;;;;;;;3.58;2.53;;;24.10;46.70;;;;;;5008205;28;20029;-72
2022/07/28 09:13:07;;;;;;;4.75;3.60;;;24.20;45.90;;;;;;5008760;28;20038;-72
2022/07/28 09:15:36;;;;;;;5.40;3.65;;;24.40;46.30;;;;;;5008745;28;20024;-72
2022/07/28 09:18:02;;;;;;;5.47;3.10;;;24.70;46.20;;;;;;5008820;28;20030;-72
2022/07/28 09:20:28;;;;;;;10.68;4.50;;;24.90;45.50;;;;;;5008951;28;20497;-72
2022/07/28 09:23:02;;;;;;;5.32;3.67;;;24.90;44.90;;;;;;5008644;28;20029;-72
2022/07/28 09:25:29;;;;;;;5.47;3.88;;;24.80;45.30;;;;;;5008242;28;20058;-72
2022/07/28 09:27:55;;;;;;;5.38;3.35;;;24.80;45.30;;;;;;5008697;28;20026;-73
2022/07/28 09:30:32;;;;;;;6.35;3.45;;;24.80;44.70;;;;;;5008437;28;20026;-72
2022/07/28 09:33:16;;;;;;;4.82;3.20;;;24.90;45.80;;;;;;5008355;28;20033;-71
2022/07/28 09:35:47;;;;;;;6.43;3.63;;;25.10;44.10;;;;;;5009445;28;20359;-72
2022/07/28 09:38:13;;;;;;;7.25;3.90;;;25.00;44.60;;;;;;5009681;28;20030;-71
2022/07/28 09:40:40;;;;;;;9.75;4.05;;;24.80;44.90;;;;;;5009068;28;20164;-72
2022/07/28 09:43:07;;;;;;;9.75;3.70;;;24.70;45.90;;;;;;5009434;28;20041;-70
2022/07/28 09:45:33;;;;;;;6.50;3.67;;;24.80;45.40;;;;;;5008637;28;20122;-74
2022/07/28 09:48:17;;;;;;;8.23;3.40;;;25.10;44.50;;;;;;5008020;28;20036;-75
2022/07/28 09:50:43;;;;;;;6.22;3.70;;;25.30;44.60;;;;;;5009239;28;20034;-74
2022/07/28 09:53:35;;;;;;;9.05;3.55;;;25.60;44.70;;;;;;5010564;28;20390;-74
2022/07/28 09:56:02;;;;;;;6.68;3.33;;;26.10;42.90;;;;;;5012910;28;20048;-75
2022/07/28 09:58:28;;;;;;;5.53;3.05;;;26.30;41.40;;;;;;5011261;28;20042;-75
2022/07/28 10:01:14;;;;;;;5.15;3.30;;;26.50;41.60;;;;;;5011145;28;20040;-74
2022/07/28 10:03:47;;;;;;;5.40;3.05;;;26.90;39.30;;;;;;5011705;28;20243;-74
2022/07/28 10:06:14;;;;;;;8.35;3.20;;;26.60;39.70;;;;;;5014178;28;20241;-75
2022/07/28 10:08:40;;;;;;;5.35;3.20;;;26.40;40.50;;;;;;5011204;28;20026;-74
2022/07/28 10:11:06;;;;;;;7.35;3.38;;;26.40;40.60;;;;;;5011085;28;20025;-75
2022/07/28 10:13:31;;;;;;;5.25;3.00;;;26.30;40.50;;;;;;5011013;28;20038;-75
2022/07/28 10:16:10;;;;;;;6.07;3.08;;;26.60;40.60;;;;;;5011271;28;20037;-76
2022/07/28 10:18:37;;;;;;;4.95;3.30;;;26.80;39.20;;;;;;5010971;28;20050;-75
2022/07/28 10:21:08;;;;;;;5.55;3.17;;;26.70;39.20;;;;;;5012288;28;20466;-74
2022/07/28 10:23:37;;;;;;;6.35;3.20;;;26.40;39.70;;;;;;5011070;28;20030;-74
2022/07/28 10:26:07;;;;;;;6.20;3.17;;;26.20;40.80;;;;;;5011171;28;20056;-74
2022/07/28 10:28:36;;;;;;;6.68;3.33;;;26.20;40.80;;;;;;4994854;28;20029;-74
2022/07/28 10:31:07;;;;;;;5.75;3.22;;;26.40;40.80;;;;;;5010962;28;20037;-74
2022/07/28 10:33:37;;;;;;;4.50;3.08;;;26.60;39.70;;;;;;5010775;28;20038;-74
2022/07/28 10:36:04;;;;;;;5.18;3.00;;;26.80;39.50;;;;;;5010607;28;20026;-74
2022/07/28 10:38:34;;;;;;;7.38;3.30;;;27.00;39.20;;;;;;5010488;28;20561;-75
2022/07/28 10:41:06;;;;;;;4.35;2.65;;;27.30;38.70;;;;;;5010921;28;20163;-75
2022/07/28 10:43:32;;;;;;;2.80;2.35;;;27.40;36.90;;;;;;5010528;28;20040;-74
2022/07/28 10:45:59;;;;;;;4.20;2.30;;;27.50;36.00;;;;;;5010733;28;20026;-74
2022/07/28 10:48:25;;;;;;;2.83;2.50;;;27.80;35.60;;;;;;5010509;28;20032;-75
2022/07/28 10:50:55;;;;;;;5.38;2.78;;;28.10;34.50;;;;;;5010586;28;20076;-78
2022/07/28 10:53:45;;;;;;;3.15;2.33;;;28.60;34.00;;;;;;5010493;28;20109;-76
2022/07/28 10:56:42;;;;;;;3.30;2.38;;;28.80;32.30;;;;;;5010695;28;20192;-76
2022/07/28 10:59:26;;;;;;;4.43;2.28;;;29.10;32.30;;;;;;5031706;28;20459;-74
2022/07/28 11:01:52;;;;;;;2.53;2.13;;;29.40;31.40;;;;;;5010714;28;20116;-76
2022/07/28 11:04:40;;;;;;;3.28;2.17;;;29.50;31.00;;;;;;5009784;28;20439;-75
2022/07/28 11:07:10;;;;;;;3.95;2.17;;;29.50;30.90;;;;;;5010068;28;20022;-75
2022/07/28 11:09:35;;;;;;;4.18;2.50;;;29.60;30.80;;;;;;5010180;28;20033;-74
2022/07/28 11:12:01;;;;;;;3.25;2.03;;;29.70;30.40;;;;;;5010416;28;20025;-75
2022/07/28 11:14:35;;;;;;;4.10;2.95;;;29.90;30.60;;;;;;5009904;28;20037;-75
2022/07/28 11:17:03;;;;;;;4.28;2.80;;;30.10;30.10;;;;;;5010350;28;20032;-75
2022/07/28 11:19:30;;;;;;;2.75;2.42;;;30.40;30.20;;;;;;5010164;28;20036;-74
2022/07/28 11:22:17;;;;;;;5.00;2.40;;;30.60;28.80;;;;;;5010309;28;20054;-75
2022/07/28 11:25:04;;;;;;;4.57;2.40;;;30.90;28.10;;;;;;5010074;28;20026;-75
2022/07/28 11:27:42;;;;;;;3.08;1.90;;;31.10;28.20;;;;;;5010358;28;20052;-75
2022/07/28 11:30:31;;;;;;;3.95;2.00;;;31.40;27.70;;;;;;5010175;28;20034;-75
2022/07/28 11:33:00;;;;;;;5.82;2.25;;;31.50;26.40;;;;;;5004651;28;20054;-76
2022/07/28 11:35:32;;;;;;;5.45;2.17;;;31.60;24.70;;;;;;5009820;28;20049;-75
2022/07/28 11:38:00;;;;;;;3.17;2.40;;;31.90;24.70;;;;;;5010064;28;20116;-76
2022/07/28 11:40:36;;;;;;;5.80;2.35;;;32.00;25.20;;;;;;5010266;28;20022;-76
2022/07/28 11:43:25;;;;;;;4.50;1.90;;;31.70;22.10;;;;;;5009830;28;20034;-75
2022/07/28 11:46:07;;;;;;;5.32;1.90;;;31.70;23.80;;;;;;5009914;28;20022;-75
2022/07/28 11:48:34;;;;;;;2.90;2.08;;;31.60;22.70;;;;;;5009545;28;20030;-75
2022/07/28 11:51:02;;;;;;;3.40;2.15;;;31.40;23.40;;;;;;5009203;28;20129;-75
2022/07/28 11:53:37;;;;;;;2.60;2.20;;;31.40;25.00;;;;;;5009517;28;20406;-75
2022/07/28 11:56:05;;;;;;;3.00;2.33;;;31.60;25.80;;;;;;5009737;28;20045;-75
2022/07/28 11:58:31;;;;;;;3.47;2.25;;;31.70;26.30;;;;;;5009412;28;20049;-75
2022/07/28 12:01:14;;;;;;;2.47;2.28;;;31.90;25.40;;;;;;5009589;28;20409;-75
2022/07/28 12:03:47;;;;;;;4.60;2.83;;;32.00;25.20;;;;;;5009242;28;20465;-75
2022/07/28 12:06:13;;;;;;;2.42;2.13;;;31.80;24.50;;;;;;5009821;28;20105;-78
2022/07/28 12:08:56;;;;;;;2.08;1.85;;;31.60;25.00;;;;;;5009883;28;20033;-75
2022/07/28 12:11:25;;;;;;;3.45;2.47;;;31.20;25.70;;;;;;5010708;28;20090;-75
2022/07/28 12:14:02;;;;;;;3.92;2.40;;;30.90;26.10;;;;;;5009310;28;20243;-74
2022/07/28 12:16:29;;;;;;;2.30;2.10;;;30.60;27.40;;;;;;5008414;28;20030;-74
2022/07/28 12:18:57;;;;;;;7.82;2.40;;;30.30;27.30;;;;;;4992988;28;20438;-74
2022/07/28 12:21:35;;;;;;;2.83;2.38;;;30.10;28.50;;;;;;5009402;28;20026;-74
2022/07/28 12:24:01;;;;;;;4.03;2.30;;;29.80;29.10;;;;;;5008888;28;20036;-74
2022/07/28 12:26:31;;;;;;;2.75;2.20;;;29.90;29.40;;;;;;4992619;28;20026;-74
2022/07/28 12:28:57;;;;;;;4.30;2.30;;;30.20;28.50;;;;;;5009122;28;20371;-74
2022/07/28 12:31:28;;;;;;;7.18;2.70;;;30.70;29.20;;;;;;5008940;28;20029;-74
2022/07/28 12:33:55;;;;;;;6.90;3.00;;;31.10;28.20;;;;;;5009107;28;20038;-74
2022/07/28 12:36:23;;;;;;;7.20;2.80;;;31.40;29.00;;;;;;5009005;28;20025;-75
2022/07/28 12:38:50;;;;;;;3.42;2.60;;;31.90;28.40;;;;;;5009218;28;20029;-76
2022/07/28 12:41:18;;;;;;;3.65;2.47;;;32.10;26.80;;;;;;5009204;28;20022;-75
2022/07/28 12:43:53;;;;;;;2.80;2.15;;;31.90;26.50;;;;;;5009443;28;20424;-76
2022/07/28 12:46:28;;;;;;;6.13;2.78;;;32.00;25.50;;;;;;4993248;28;20117;-76
2022/07/28 12:48:55;;;;;;;4.15;2.58;;;32.10;24.20;;;;;;5009048;28;20030;-75
2022/07/28 12:51:40;;;;;;;4.78;2.70;;;32.30;23.50;;;;;;5008389;28;20474;-75
2022/07/28 12:54:08;;;;;;;7.53;2.97;;;32.40;24.60;;;;;;5008950;28;20658;-75